createdAt,value
2023-07-07T00:00:29.885Z,28.63
2023-07-07T00:02:57.050Z,28.58
2023-07-07T00:05:24.239Z,28.67
2023-07-07T00:07:52.066Z,28.65
2023-07-07T00:10:19.948Z,28.78
2023-07-07T00:12:47.559Z,28.61
2023-07-07T00:15:15.757Z,28.59
2023-07-07T00:17:44.070Z,28.37
2023-07-07T00:20:14.059Z,28.35
2023-07-07T00:22:41.850Z,28.49
2023-07-07T00:25:11.048Z,28.50
2023-07-07T00:27:39.306Z,28.54
2023-07-07T00:30:07.983Z,28.44
2023-07-07T00:32:35.993Z,28.44
2023-07-07T00:35:03.300Z,28.50
2023-07-07T00:37:30.831Z,28.36
2023-07-07T00:39:58.171Z,28.40
2023-07-07T00:42:25.278Z,28.30
2023-07-07T00:45:15.414Z,28.44
2023-07-07T00:47:57.382Z,28.34
2023-07-07T00:50:41.925Z,28.36
2023-07-07T00:53:09.052Z,28.21
2023-07-07T00:55:45.733Z,28.21
2023-07-07T00:58:17.888Z,28.04
2023-07-07T01:00:54.159Z,28.07
2023-07-07T01:03:32.534Z,28.17
2023-07-07T01:06:03.241Z,27.98
2023-07-07T01:08:30.769Z,27.98
2023-07-07T01:10:59.402Z,27.99
2023-07-07T01:13:27.607Z,27.89
2023-07-07T01:16:07.629Z,27.86
2023-07-07T01:18:40.860Z,27.89
2023-07-07T01:21:19.064Z,27.95
2023-07-07T01:24:25.684Z,27.86
2023-07-07T01:27:01.298Z,27.76
2023-07-07T01:29:57.921Z,27.86
2023-07-07T01:32:30.483Z,27.87
2023-07-07T01:34:59.909Z,27.82
2023-07-07T01:37:27.506Z,27.88
2023-07-07T01:39:55.630Z,27.82
2023-07-07T01:42:35.818Z,27.77
2023-07-07T01:45:07.881Z,27.76
2023-07-07T01:47:38.470Z,27.62
2023-07-07T01:50:16.587Z,27.65
2023-07-07T01:52:53.627Z,27.58
2023-07-07T01:55:32.380Z,27.68
2023-07-07T01:58:03.890Z,27.74
2023-07-07T02:00:33.036Z,27.74
2023-07-07T02:03:01.284Z,27.68
2023-07-07T02:05:32.402Z,27.66
2023-07-07T02:08:00.023Z,27.50
2023-07-07T02:10:27.413Z,27.54
2023-07-07T02:12:54.501Z,27.60
2023-07-07T02:15:21.499Z,27.61
2023-07-07T02:17:49.624Z,27.69
2023-07-07T02:20:17.186Z,27.63
2023-07-07T02:22:44.805Z,27.61
2023-07-07T02:25:11.885Z,27.58
2023-07-07T02:27:39.273Z,27.51
2023-07-07T02:30:07.145Z,27.36
2023-07-07T02:32:34.461Z,27.51
2023-07-07T02:35:03.880Z,27.52
2023-07-07T02:37:31.399Z,27.31
2023-07-07T02:39:58.749Z,27.47
2023-07-07T02:42:26.091Z,27.38
2023-07-07T02:44:53.421Z,27.39
2023-07-07T02:47:20.515Z,27.23
2023-07-07T02:49:48.052Z,27.25
2023-07-07T02:52:15.015Z,27.31
2023-07-07T02:54:42.176Z,27.40
2023-07-07T02:57:10.117Z,27.31
2023-07-07T02:59:37.713Z,27.35
2023-07-07T03:02:05.157Z,27.40
2023-07-07T03:04:34.346Z,27.25
2023-07-07T03:07:01.390Z,27.29
2023-07-07T03:09:28.680Z,27.37
2023-07-07T03:11:55.821Z,27.27
2023-07-07T03:14:23.478Z,27.31
2023-07-07T03:16:53.190Z,27.46
2023-07-07T03:19:21.250Z,27.34
2023-07-07T03:21:48.931Z,27.40
2023-07-07T03:24:16.994Z,27.47
2023-07-07T03:26:44.717Z,27.37
2023-07-07T03:29:14.188Z,27.44
2023-07-07T03:31:41.683Z,27.35
2023-07-07T03:34:08.867Z,27.46
2023-07-07T03:36:37.385Z,27.42
2023-07-07T03:39:05.158Z,27.32
2023-07-07T03:41:33.293Z,27.33
2023-07-07T03:44:00.734Z,27.40
2023-07-07T03:46:29.743Z,27.30
2023-07-07T03:48:58.019Z,27.41
2023-07-07T03:51:26.637Z,27.31
2023-07-07T03:53:54.703Z,27.37
2023-07-07T03:56:21.873Z,27.34
2023-07-07T03:58:49.270Z,27.46
2023-07-07T04:01:16.996Z,27.46
2023-07-07T04:03:46.853Z,27.50
2023-07-07T04:06:19.012Z,27.42
2023-07-07T04:08:48.479Z,27.45
2023-07-07T04:11:20.466Z,27.49
2023-07-07T04:13:50.296Z,27.56
2023-07-07T04:16:23.274Z,27.55
2023-07-07T04:18:52.088Z,27.60
2023-07-07T04:21:22.350Z,27.58
2023-07-07T04:23:52.650Z,27.58
2023-07-07T04:26:21.712Z,27.58
2023-07-07T04:28:52.830Z,27.71
2023-07-07T04:31:22.551Z,27.76
2023-07-07T04:33:50.004Z,27.72
2023-07-07T04:36:18.133Z,27.76
2023-07-07T04:38:46.187Z,27.90
2023-07-07T04:41:17.156Z,27.98
2023-07-07T04:43:46.779Z,28.13
2023-07-07T04:46:16.707Z,28.24
2023-07-07T04:48:43.948Z,28.41
2023-07-07T04:51:12.494Z,28.56
2023-07-07T04:53:40.983Z,28.60
2023-07-07T04:56:13.356Z,28.73
2023-07-07T04:58:41.601Z,28.79
2023-07-07T05:01:12.175Z,28.98
2023-07-07T05:03:41.366Z,29.11
2023-07-07T05:06:10.704Z,29.16
2023-07-07T05:08:41.333Z,29.35
2023-07-07T05:11:16.540Z,29.34
2023-07-07T05:13:49.874Z,29.38
2023-07-07T05:16:20.814Z,29.43
2023-07-07T05:18:48.880Z,29.55
2023-07-07T05:21:18.338Z,29.60
2023-07-07T05:23:45.971Z,29.74
2023-07-07T05:26:13.477Z,29.71
2023-07-07T05:28:40.725Z,29.67
2023-07-07T05:31:09.373Z,29.56
2023-07-07T05:33:39.795Z,29.82
2023-07-07T05:36:11.651Z,29.87
2023-07-07T05:38:41.079Z,29.96
2023-07-07T05:41:10.134Z,29.97
2023-07-07T05:43:38.698Z,29.92
2023-07-07T05:46:10.260Z,29.89
2023-07-07T05:48:37.535Z,29.94
2023-07-07T05:51:06.697Z,29.98
2023-07-07T05:53:35.596Z,30.12
2023-07-07T05:56:09.752Z,30.16
2023-07-07T05:58:38.111Z,30.24
2023-07-07T06:01:05.347Z,30.36
2023-07-07T06:03:33.460Z,30.36
2023-07-07T06:06:02.718Z,30.53
2023-07-07T06:08:32.424Z,30.67
2023-07-07T06:11:01.213Z,30.76
2023-07-07T06:13:29.862Z,30.93
2023-07-07T06:15:59.488Z,31.07
2023-07-07T06:18:27.201Z,31.28
2023-07-07T06:20:57.229Z,31.44
2023-07-07T06:23:24.858Z,31.58
2023-07-07T06:25:52.257Z,31.64
2023-07-07T06:28:20.908Z,31.71
2023-07-07T06:30:49.927Z,31.73
2023-07-07T06:33:20.845Z,31.88
2023-07-07T06:35:48.971Z,31.95
2023-07-07T06:38:16.524Z,32.08
2023-07-07T06:40:43.958Z,32.21
2023-07-07T06:43:13.964Z,32.37
2023-07-07T06:45:41.518Z,32.49
2023-07-07T06:48:09.284Z,32.60
2023-07-07T06:50:39.180Z,32.74
2023-07-07T06:53:06.726Z,32.93
2023-07-07T06:55:34.225Z,32.97
2023-07-07T06:58:01.315Z,33.09
2023-07-07T07:00:29.259Z,33.23
2023-07-07T07:02:56.433Z,33.43
2023-07-07T07:05:23.635Z,33.53
2023-07-07T07:07:51.828Z,33.54
2023-07-07T07:10:19.353Z,33.58
2023-07-07T07:12:47.062Z,33.70
2023-07-07T07:15:14.606Z,33.93
2023-07-07T07:17:41.990Z,33.94
2023-07-07T07:20:12.328Z,34.01
2023-07-07T07:22:39.772Z,34.17
2023-07-07T07:25:07.855Z,34.24
2023-07-07T07:27:35.336Z,34.34
2023-07-07T07:30:02.357Z,34.31
2023-07-07T07:32:29.817Z,34.49
2023-07-07T07:34:56.869Z,34.55
2023-07-07T07:37:23.905Z,34.74
2023-07-07T07:39:53.277Z,34.95
2023-07-07T07:42:22.531Z,34.98
2023-07-07T07:44:49.739Z,35.11
2023-07-07T07:47:18.307Z,35.11
2023-07-07T07:49:46.829Z,34.98
2023-07-07T07:52:14.017Z,35.33
2023-07-07T07:54:41.034Z,35.37
2023-07-07T07:57:09.361Z,35.63
2023-07-07T07:59:36.460Z,35.68
2023-07-07T08:02:04.136Z,35.83
2023-07-07T08:04:32.401Z,35.81
2023-07-07T08:06:59.387Z,35.90
2023-07-07T08:09:26.465Z,36.13
2023-07-07T08:11:55.709Z,36.16
2023-07-07T08:14:31.362Z,36.21
2023-07-07T08:17:09.095Z,36.18
2023-07-07T08:19:38.876Z,36.23
2023-07-07T08:22:10.029Z,36.34
2023-07-07T08:24:48.308Z,36.45
2023-07-07T08:29:51.046Z,36.57
2023-07-07T08:32:22.593Z,36.62
2023-07-07T08:34:54.516Z,36.85
2023-07-07T08:37:26.359Z,36.96
2023-07-07T08:39:53.709Z,37.11
2023-07-07T08:42:32.002Z,37.15
2023-07-07T08:45:02.604Z,37.10
2023-07-07T08:47:48.678Z,37.26
2023-07-07T08:50:29.259Z,37.12
2023-07-07T08:53:11.863Z,37.24
2023-07-07T08:55:54.626Z,37.43
2023-07-07T08:58:29.458Z,37.36
2023-07-07T09:01:26.686Z,37.36
2023-07-07T09:04:12.138Z,37.59
2023-07-07T09:07:02.317Z,37.41
2023-07-07T09:09:46.954Z,37.51
2023-07-07T09:12:29.318Z,37.52
2023-07-07T09:15:00.654Z,37.62
2023-07-07T09:17:37.725Z,37.86
2023-07-07T09:20:06.866Z,38.16
2023-07-07T09:22:44.804Z,38.26
2023-07-07T09:25:49.988Z,38.40
2023-07-07T09:28:19.076Z,38.38
2023-07-07T09:30:57.573Z,38.25
2023-07-07T09:33:26.161Z,38.18
2023-07-07T09:35:59.022Z,37.94
2023-07-07T09:38:53.421Z,37.78
2023-07-07T09:41:30.121Z,38.18
2023-07-07T09:44:18.905Z,37.83
2023-07-07T09:47:12.652Z,37.76
2023-07-07T09:49:46.627Z,37.59
2023-07-07T09:52:37.800Z,37.11
2023-07-07T09:55:15.303Z,36.87
2023-07-07T09:57:59.746Z,36.85
2023-07-07T10:00:44.044Z,36.53
2023-07-07T10:03:24.568Z,36.69
2023-07-07T10:05:55.863Z,36.99
2023-07-07T10:08:23.654Z,37.17
2023-07-07T10:11:50.583Z,37.42
2023-07-07T10:14:05.559Z,37.33
2023-07-07T10:16:34.133Z,37.52
2023-07-07T10:19:11.304Z,37.58
2023-07-07T10:21:38.822Z,37.69
2023-07-07T10:24:06.494Z,37.29
2023-07-07T10:26:34.347Z,37.40
2023-07-07T10:29:05.533Z,37.53
2023-07-07T10:31:34.221Z,37.83
2023-07-07T10:34:21.915Z,37.79
2023-07-07T10:36:49.144Z,37.95
2023-07-07T10:39:16.286Z,37.98
2023-07-07T10:41:43.818Z,37.93
2023-07-07T10:44:10.893Z,38.14
2023-07-07T10:46:38.395Z,37.99
2023-07-07T10:49:05.821Z,38.08
2023-07-07T10:51:55.938Z,38.15
2023-07-07T10:54:36.721Z,38.43
2023-07-07T10:57:33.348Z,38.24
2023-07-07T11:00:31.027Z,37.67
2023-07-07T11:03:02.961Z,37.75
2023-07-07T11:06:03.407Z,37.60
2023-07-07T11:08:48.397Z,37.54
2023-07-07T11:11:57.377Z,37.31
2023-07-07T11:14:58.847Z,37.07
2023-07-07T11:17:38.055Z,36.99
2023-07-07T11:20:37.471Z,37.07
2023-07-07T11:23:04.455Z,37.08
2023-07-07T11:25:54.630Z,36.82
2023-07-07T11:28:22.184Z,37.29
2023-07-07T11:30:52.136Z,37.66
2023-07-07T11:33:24.953Z,37.68
2023-07-07T11:35:56.346Z,37.69
2023-07-07T11:38:30.480Z,37.25
2023-07-07T11:41:03.563Z,36.98
2023-07-07T11:43:55.295Z,37.04
2023-07-07T11:46:41.334Z,37.46
2023-07-07T11:49:28.117Z,37.78
2023-07-07T11:51:55.282Z,38.27
2023-07-07T11:54:31.561Z,38.03
2023-07-07T11:57:15.518Z,38.59
2023-07-07T12:00:04.682Z,39.04
2023-07-07T12:02:44.772Z,39.10
2023-07-07T12:05:15.957Z,39.22
2023-07-07T12:07:52.771Z,39.09
2023-07-07T12:10:27.262Z,39.62
2023-07-07T12:13:11.917Z,39.62
2023-07-07T12:15:50.799Z,39.94
2023-07-07T12:18:23.340Z,40.59
2023-07-07T12:20:56.628Z,40.74
2023-07-07T12:23:30.790Z,40.53
2023-07-07T12:26:18.762Z,40.65
2023-07-07T12:28:51.288Z,41.12
2023-07-07T12:31:20.896Z,41.66
2023-07-07T12:33:52.537Z,41.78
2023-07-07T12:36:30.958Z,41.88
2023-07-07T12:39:02.231Z,41.96
2023-07-07T12:41:30.360Z,41.51
2023-07-07T12:44:04.893Z,41.74
2023-07-07T12:46:35.328Z,41.22
2023-07-07T12:49:20.395Z,41.22
2023-07-07T12:51:47.425Z,40.60
2023-07-07T12:54:35.677Z,40.74
2023-07-07T12:57:27.732Z,41.20
2023-07-07T13:00:32.151Z,41.41
2023-07-07T13:03:11.421Z,41.60
2023-07-07T13:05:50.442Z,41.90
2023-07-07T13:08:37.771Z,41.84
2023-07-07T13:11:08.801Z,41.90
2023-07-07T13:13:40.240Z,40.65
2023-07-07T13:16:14.720Z,40.39
2023-07-07T13:18:43.355Z,40.44
2023-07-07T13:21:14.113Z,40.33
2023-07-07T13:23:50.120Z,39.95
2023-07-07T13:26:29.238Z,40.37
2023-07-07T13:29:06.908Z,40.78
2023-07-07T13:31:39.673Z,41.36
2023-07-07T13:34:19.252Z,40.90
2023-07-07T13:36:48.444Z,41.01
2023-07-07T13:39:16.178Z,40.74
2023-07-07T13:41:45.814Z,41.60
2023-07-07T13:44:21.060Z,41.88
2023-07-07T13:47:02.638Z,41.40
2023-07-07T13:49:33.221Z,41.52
2023-07-07T13:52:00.520Z,42.17
2023-07-07T13:54:27.684Z,42.23
2023-07-07T13:57:05.378Z,41.61
2023-07-07T13:59:33.077Z,41.59
2023-07-07T14:02:00.664Z,41.63
2023-07-07T14:04:36.842Z,41.13
2023-07-07T14:07:04.441Z,40.22
2023-07-07T14:09:40.368Z,39.90
2023-07-07T14:12:12.996Z,39.98
2023-07-07T14:14:53.102Z,39.62
2023-07-07T14:17:32.755Z,39.68
2023-07-07T14:20:28.050Z,39.16
2023-07-07T14:22:58.056Z,39.08
2023-07-07T14:25:27.302Z,38.93
2023-07-07T14:27:57.341Z,38.51
2023-07-07T14:30:25.577Z,38.14
2023-07-07T14:32:55.645Z,38.08
2023-07-07T14:35:33.533Z,38.06
2023-07-07T14:38:05.930Z,37.75
2023-07-07T14:41:35.971Z,37.78
2023-07-07T14:44:03.854Z,37.48
2023-07-07T14:46:38.663Z,37.55
2023-07-07T14:49:20.319Z,37.46
2023-07-07T14:51:50.396Z,37.44
2023-07-07T14:54:20.135Z,37.43
2023-07-07T14:57:05.888Z,37.23
2023-07-07T14:59:38.086Z,37.02
2023-07-07T15:02:17.465Z,36.85
2023-07-07T15:04:46.357Z,36.86
2023-07-07T15:07:25.339Z,36.72
2023-07-07T15:09:52.882Z,36.56
2023-07-07T15:12:19.974Z,36.48
2023-07-07T15:14:47.572Z,36.46
2023-07-07T15:17:14.684Z,36.51
2023-07-07T15:19:43.382Z,36.13
2023-07-07T15:22:13.870Z,36.29
2023-07-07T15:24:40.988Z,36.33
2023-07-07T15:27:13.133Z,36.27
2023-07-07T15:29:40.885Z,36.40
2023-07-07T15:32:11.864Z,36.30
2023-07-07T15:34:39.815Z,36.21
2023-07-07T15:37:12.161Z,36.27
2023-07-07T15:39:39.326Z,36.33
2023-07-07T15:42:13.710Z,36.23
2023-07-07T15:44:41.813Z,36.17
2023-07-07T15:47:23.598Z,36.03
2023-07-07T15:49:50.861Z,36.13
2023-07-07T15:52:18.676Z,36.04
2023-07-07T15:54:45.961Z,36.00
2023-07-07T15:57:14.203Z,35.71
2023-07-07T15:59:42.048Z,35.36
2023-07-07T16:02:18.022Z,35.37
2023-07-07T16:04:46.020Z,35.42
2023-07-07T16:07:17.305Z,35.22
2023-07-07T16:09:45.929Z,35.23
2023-07-07T16:12:18.628Z,35.25
2023-07-07T16:14:46.922Z,35.17
2023-07-07T16:17:17.576Z,34.69
2023-07-07T16:19:45.101Z,33.92
2023-07-07T16:22:14.908Z,32.02
2023-07-07T16:24:42.410Z,31.25
2023-07-07T16:27:18.040Z,28.80
2023-07-07T16:29:47.122Z,27.86
2023-07-07T16:32:14.344Z,27.39
2023-07-07T16:34:41.875Z,27.22
2023-07-07T16:37:14.977Z,26.65
2023-07-07T16:39:42.749Z,26.82
2023-07-07T16:42:14.156Z,26.68
2023-07-07T16:44:41.885Z,26.62
2023-07-07T16:47:12.643Z,26.76
2023-07-07T16:49:40.472Z,26.76
2023-07-07T16:52:08.764Z,26.79
2023-07-07T16:54:36.042Z,26.71
2023-07-07T16:57:03.571Z,26.69
2023-07-07T16:59:30.568Z,26.86
2023-07-07T17:01:57.740Z,26.90
2023-07-07T17:04:25.749Z,27.01
2023-07-07T17:06:53.103Z,26.94
2023-07-07T17:09:22.938Z,27.02
2023-07-07T17:11:50.261Z,27.11
2023-07-07T17:14:17.768Z,27.19
2023-07-07T17:16:45.507Z,27.29
2023-07-07T17:19:18.740Z,27.34
2023-07-07T17:21:45.992Z,27.37
2023-07-07T17:24:13.185Z,27.38
2023-07-07T17:26:41.473Z,27.42
2023-07-07T17:29:16.302Z,27.43
2023-07-07T17:31:44.568Z,27.51
2023-07-07T17:34:13.759Z,27.60
2023-07-07T17:36:42.589Z,27.63
2023-07-07T17:39:15.479Z,27.58
2023-07-07T17:41:44.046Z,27.56
2023-07-07T17:44:11.243Z,27.61
2023-07-07T17:46:43.077Z,27.69
2023-07-07T17:49:15.229Z,27.75
2023-07-07T17:51:42.958Z,27.74
2023-07-07T17:54:11.853Z,27.74
2023-07-07T17:56:41.553Z,27.80
2023-07-07T17:59:18.704Z,27.55
2023-07-07T18:01:47.460Z,27.69
2023-07-07T18:04:15.039Z,27.71
2023-07-07T18:06:48.138Z,27.84
2023-07-07T18:09:15.901Z,27.84
2023-07-07T18:11:43.080Z,27.92
2023-07-07T18:14:11.209Z,28.02
2023-07-07T18:16:44.374Z,27.96
2023-07-07T18:19:38.137Z,28.05
2023-07-07T18:22:10.732Z,28.06
2023-07-07T18:24:38.773Z,28.14
2023-07-07T18:27:06.034Z,28.19
2023-07-07T18:29:33.254Z,28.23
2023-07-07T18:32:00.398Z,28.25
2023-07-07T18:34:27.803Z,28.08
2023-07-07T18:36:55.329Z,28.04
2023-07-07T18:39:25.607Z,28.16
2023-07-07T18:41:52.829Z,28.17
2023-07-07T18:44:23.778Z,28.10
2023-07-07T18:46:51.708Z,28.02
2023-07-07T18:49:19.456Z,28.12
2023-07-07T18:51:47.462Z,28.20
2023-07-07T18:54:17.181Z,28.30
2023-07-07T18:56:47.949Z,28.29
2023-07-07T18:59:21.271Z,28.34
2023-07-07T19:01:48.915Z,28.38
2023-07-07T19:04:16.757Z,28.39
2023-07-07T19:06:46.284Z,28.42
2023-07-07T19:09:19.310Z,28.43
2023-07-07T19:11:51.247Z,28.37
2023-07-07T19:14:18.583Z,28.39
2023-07-07T19:16:46.707Z,28.25
2023-07-07T19:19:21.550Z,28.29
2023-07-07T19:21:48.928Z,28.16
2023-07-07T19:24:16.382Z,28.26
2023-07-07T19:26:48.547Z,28.23
2023-07-07T19:29:15.916Z,28.19
2023-07-07T19:31:44.286Z,28.20
2023-07-07T19:34:13.117Z,28.12
2023-07-07T19:36:42.674Z,28.15
2023-07-07T19:39:22.079Z,28.13
2023-07-07T19:41:51.621Z,28.13
2023-07-07T19:44:20.078Z,28.04
2023-07-07T19:46:47.542Z,28.06
2023-07-07T19:49:25.669Z,27.95
2023-07-07T19:51:53.891Z,27.92
2023-07-07T19:54:24.397Z,27.91
2023-07-07T19:56:51.692Z,27.93
2023-07-07T19:59:20.553Z,27.92
2023-07-07T20:01:49.208Z,27.91
2023-07-07T20:04:17.016Z,27.74
2023-07-07T20:06:45.902Z,27.93
2023-07-07T20:09:17.581Z,27.93
2023-07-07T20:11:46.169Z,27.98
2023-07-07T20:14:13.509Z,28.04
2023-07-07T20:16:50.451Z,27.98
2023-07-07T20:19:22.540Z,28.01
2023-07-07T20:21:50.989Z,27.96
2023-07-07T20:24:19.349Z,27.94
2023-07-07T20:26:48.658Z,27.91
2023-07-07T20:29:18.392Z,27.93
2023-07-07T20:31:47.430Z,28.01
2023-07-07T20:34:14.958Z,27.93
2023-07-07T20:36:43.705Z,27.88
2023-07-07T20:39:21.299Z,27.96
2023-07-07T20:41:51.068Z,27.99
2023-07-07T20:44:18.168Z,27.93
2023-07-07T20:46:46.570Z,27.72
2023-07-07T20:49:19.488Z,27.83
2023-07-07T20:51:47.794Z,27.88
2023-07-07T20:54:15.152Z,27.84
2023-07-07T20:56:42.344Z,27.93
2023-07-07T20:59:25.017Z,27.84
2023-07-07T21:01:55.346Z,27.85
2023-07-07T21:04:23.328Z,27.72
2023-07-07T21:06:50.746Z,27.72
2023-07-07T21:09:18.734Z,27.72
2023-07-07T21:11:45.832Z,27.64
2023-07-07T21:14:13.759Z,27.60
2023-07-07T21:16:46.358Z,27.63
2023-07-07T21:19:14.879Z,27.64
2023-07-07T21:21:42.334Z,27.64
2023-07-07T21:24:09.851Z,27.62
2023-07-07T21:26:37.221Z,27.66
2023-07-07T21:29:12.136Z,27.68
2023-07-07T21:31:40.558Z,27.55
2023-07-07T21:34:27.751Z,27.48
2023-07-07T21:36:55.318Z,27.54
2023-07-07T21:39:33.331Z,27.52
2023-07-07T21:44:32.449Z,27.47
2023-07-07T21:46:59.703Z,27.49
2023-07-07T21:49:27.076Z,27.59
2023-07-07T21:51:54.144Z,27.66
2023-07-07T21:54:21.493Z,27.65
2023-07-07T21:56:48.825Z,27.66
2023-07-07T21:59:18.827Z,27.70
2023-07-07T22:01:48.598Z,27.72
2023-07-07T22:04:16.430Z,27.68
2023-07-07T22:06:44.783Z,27.71
2023-07-07T22:09:17.540Z,27.78
2023-07-07T22:11:45.738Z,27.58
2023-07-07T22:14:12.861Z,27.62
2023-07-07T22:16:40.096Z,27.70
2023-07-07T22:19:13.130Z,27.74
2023-07-07T22:21:40.651Z,27.71
2023-07-07T22:24:07.698Z,27.50
2023-07-07T22:26:35.806Z,27.58
2023-07-07T22:29:03.320Z,27.50
2023-07-07T22:31:30.460Z,27.39
2023-07-07T22:33:57.452Z,27.38
2023-07-07T22:36:26.882Z,27.28
2023-07-07T22:38:54.203Z,27.12
2023-07-07T22:41:24.435Z,27.09
2023-07-07T22:43:52.377Z,27.05
2023-07-07T22:46:29.876Z,27.00
2023-07-07T22:48:57.040Z,27.01
2023-07-07T22:51:24.256Z,26.87
2023-07-07T22:53:51.409Z,26.96
2023-07-07T22:56:27.027Z,26.87
2023-07-07T22:58:55.822Z,26.91
2023-07-07T23:01:25.838Z,26.75
2023-07-07T23:03:56.900Z,26.74
2023-07-07T23:06:23.958Z,26.87
2023-07-07T23:08:58.988Z,27.03
2023-07-07T23:11:26.690Z,26.97
2023-07-07T23:13:58.170Z,26.89
2023-07-07T23:16:26.442Z,26.87
2023-07-07T23:18:53.607Z,26.84
2023-07-07T23:21:21.681Z,26.75
2023-07-07T23:23:49.092Z,26.56
2023-07-07T23:26:28.745Z,26.67
2023-07-07T23:28:57.490Z,26.90
2023-07-07T23:31:29.076Z,26.90
2023-07-07T23:33:57.047Z,26.87
2023-07-07T23:36:34.354Z,26.77
2023-07-07T23:39:03.039Z,26.72
2023-07-07T23:41:30.665Z,26.68
2023-07-07T23:43:57.711Z,26.65
2023-07-07T23:46:24.874Z,26.72
2023-07-07T23:48:52.227Z,26.71
2023-07-07T23:51:19.239Z,26.74
2023-07-07T23:53:47.645Z,26.68
2023-07-07T23:56:20.515Z,26.60
2023-07-07T23:58:48.030Z,26.37
